createdAt,value
2023-05-05T00:02:00.915Z,12.82
2023-05-05T00:04:29.070Z,12.71
2023-05-05T00:06:57.413Z,12.81
2023-05-05T00:09:26.659Z,12.87
2023-05-05T00:11:54.700Z,12.96
2023-05-05T00:14:22.584Z,12.87
2023-05-05T00:16:50.544Z,12.89
2023-05-05T00:19:18.484Z,12.88
2023-05-05T00:21:46.417Z,12.94
2023-05-05T00:24:14.340Z,12.98
2023-05-05T00:26:43.627Z,12.82
2023-05-05T00:29:11.525Z,12.86
2023-05-05T00:31:39.756Z,12.80
2023-05-05T00:34:07.784Z,12.82
2023-05-05T00:36:35.977Z,12.91
2023-05-05T00:39:04.510Z,12.95
2023-05-05T00:41:32.731Z,13.01
2023-05-05T00:44:01.990Z,13.08
2023-05-05T00:46:31.697Z,13.06
2023-05-05T00:49:00.010Z,13.10
2023-05-05T00:51:29.392Z,12.97
2023-05-05T00:53:57.436Z,12.92
2023-05-05T00:56:27.461Z,12.87
2023-05-05T00:58:55.675Z,12.82
2023-05-05T01:01:24.984Z,12.94
2023-05-05T01:03:52.998Z,13.08
2023-05-05T01:06:38.575Z,13.12
2023-05-05T01:09:12.918Z,13.06
2023-05-05T01:11:52.626Z,13.06
2023-05-05T01:14:26.112Z,13.05
2023-05-05T01:17:00.105Z,13.00
2023-05-05T01:19:50.536Z,13.00
2023-05-05T01:22:21.854Z,13.00
2023-05-05T01:25:13.537Z,12.92
2023-05-05T01:28:01.980Z,12.78
2023-05-05T01:30:58.802Z,12.71
2023-05-05T01:33:32.682Z,12.57
2023-05-05T01:36:07.748Z,12.59
2023-05-05T01:38:41.899Z,12.66
2023-05-05T01:41:14.992Z,12.57
2023-05-05T01:43:47.117Z,12.88
2023-05-05T01:46:16.379Z,12.92
2023-05-05T01:48:47.052Z,12.87
2023-05-05T01:51:17.050Z,12.94
2023-05-05T01:53:47.209Z,12.78
2023-05-05T01:56:16.888Z,12.88
2023-05-05T01:58:47.791Z,12.66
2023-05-05T02:01:16.949Z,12.75
2023-05-05T02:03:47.430Z,12.77
2023-05-05T02:06:17.543Z,12.69
2023-05-05T02:08:47.287Z,12.79
2023-05-05T02:11:16.704Z,12.61
2023-05-05T02:13:45.790Z,12.83
2023-05-05T02:16:15.047Z,12.76
2023-05-05T02:18:44.246Z,12.82
2023-05-05T02:21:14.815Z,12.85
2023-05-05T02:23:42.727Z,12.75
2023-05-05T02:26:13.403Z,12.79
2023-05-05T02:28:43.600Z,12.70
2023-05-05T02:31:15.017Z,12.65
2023-05-05T02:33:45.466Z,12.77
2023-05-05T02:36:20.378Z,12.86
2023-05-05T02:38:52.992Z,12.78
2023-05-05T02:41:22.800Z,12.79
2023-05-05T02:43:52.293Z,12.80
2023-05-05T02:46:20.614Z,12.89
2023-05-05T02:48:48.554Z,12.77
2023-05-05T02:51:17.772Z,12.93
2023-05-05T02:53:45.906Z,12.88
2023-05-05T02:56:27.996Z,12.77
2023-05-05T02:59:01.490Z,12.67
2023-05-05T03:01:40.658Z,12.75
2023-05-05T03:04:13.178Z,12.67
2023-05-05T03:06:46.735Z,12.71
2023-05-05T03:09:22.354Z,12.86
2023-05-05T03:11:54.388Z,12.80
2023-05-05T03:14:23.778Z,12.72
2023-05-05T03:16:51.909Z,12.71
2023-05-05T03:19:21.341Z,12.75
2023-05-05T03:21:52.511Z,12.76
2023-05-05T03:24:21.699Z,12.84
2023-05-05T03:26:50.697Z,12.77
2023-05-05T03:29:18.699Z,12.73
2023-05-05T03:31:46.863Z,12.66
2023-05-05T03:34:14.768Z,12.76
2023-05-05T03:36:42.830Z,12.64
2023-05-05T03:39:12.025Z,12.61
2023-05-05T03:41:39.953Z,12.73
2023-05-05T03:44:07.983Z,12.75
2023-05-05T03:46:36.088Z,12.78
2023-05-05T03:49:03.974Z,12.84
2023-05-05T03:51:32.220Z,12.83
2023-05-05T03:54:00.089Z,12.83
2023-05-05T03:56:29.380Z,12.81
2023-05-05T03:58:57.237Z,12.75
2023-05-05T04:01:25.364Z,12.79
2023-05-05T04:03:53.335Z,12.64
2023-05-05T04:06:21.329Z,12.60
2023-05-05T04:08:49.256Z,12.61
2023-05-05T04:11:17.317Z,12.55
2023-05-05T04:13:47.096Z,12.62
2023-05-05T04:16:15.129Z,12.60
2023-05-05T04:18:43.065Z,12.72
2023-05-05T04:21:11.088Z,12.69
2023-05-05T04:23:39.017Z,12.65
2023-05-05T04:26:07.005Z,12.68
2023-05-05T04:28:34.876Z,12.68
2023-05-05T04:31:05.168Z,12.58
2023-05-05T04:33:33.263Z,12.58
2023-05-05T04:36:01.173Z,12.62
2023-05-05T04:38:29.090Z,12.59
2023-05-05T04:40:57.058Z,12.49
2023-05-05T04:43:25.024Z,12.68
2023-05-05T04:45:56.128Z,12.65
2023-05-05T04:48:25.537Z,12.55
2023-05-05T04:50:53.512Z,12.54
2023-05-05T04:53:21.407Z,12.47
2023-05-05T04:55:49.385Z,12.47
2023-05-05T04:58:17.400Z,12.52
2023-05-05T05:00:45.348Z,12.50
2023-05-05T05:03:13.269Z,12.62
2023-05-05T05:05:42.830Z,12.62
2023-05-05T05:08:10.884Z,12.71
2023-05-05T05:10:38.820Z,12.67
2023-05-05T05:13:06.790Z,12.73
2023-05-05T05:15:34.757Z,12.69
2023-05-05T05:18:02.871Z,12.67
2023-05-05T05:20:31.326Z,12.68
2023-05-05T05:23:02.145Z,12.73
2023-05-05T05:25:30.417Z,12.66
2023-05-05T05:28:08.830Z,12.77
2023-05-05T05:30:37.799Z,12.65
2023-05-05T05:33:05.971Z,12.65
2023-05-05T05:35:33.986Z,12.83
2023-05-05T05:38:03.314Z,13.06
2023-05-05T05:40:31.575Z,13.17
2023-05-05T05:42:59.506Z,13.11
2023-05-05T05:45:27.503Z,13.22
2023-05-05T05:47:55.571Z,13.20
2023-05-05T05:50:24.627Z,13.15
2023-05-05T05:52:52.576Z,13.18
2023-05-05T05:55:22.011Z,13.32
2023-05-05T05:57:49.967Z,13.43
2023-05-05T06:00:18.165Z,13.34
2023-05-05T06:02:46.087Z,13.63
2023-05-05T06:05:13.975Z,13.62
2023-05-05T06:07:41.909Z,13.72
2023-05-05T06:10:25.970Z,13.70
2023-05-05T06:12:56.490Z,13.73
2023-05-05T06:15:25.532Z,13.78
2023-05-05T06:17:53.578Z,13.82
2023-05-05T06:20:21.533Z,13.91
2023-05-05T06:22:49.449Z,14.02
2023-05-05T06:25:17.801Z,14.21
2023-05-05T06:27:46.000Z,14.30
2023-05-05T06:30:15.845Z,14.29
2023-05-05T06:32:43.784Z,14.29
2023-05-05T06:35:11.893Z,14.44
2023-05-05T06:37:39.911Z,14.50
2023-05-05T06:40:10.559Z,14.55
2023-05-05T06:42:38.574Z,14.65
2023-05-05T06:45:07.370Z,14.80
2023-05-05T06:47:37.281Z,14.94
2023-05-05T06:50:06.002Z,15.18
2023-05-05T06:52:34.157Z,15.03
2023-05-05T06:55:02.057Z,15.24
2023-05-05T06:57:29.961Z,15.14
2023-05-05T06:59:57.939Z,15.45
2023-05-05T07:02:26.926Z,15.79
2023-05-05T07:04:56.446Z,16.00
2023-05-05T07:07:24.503Z,15.93
2023-05-05T07:09:52.502Z,15.99
2023-05-05T07:12:20.428Z,16.19
2023-05-05T07:14:48.370Z,15.97
2023-05-05T07:17:16.312Z,15.93
2023-05-05T07:19:44.317Z,15.98
2023-05-05T07:22:13.588Z,15.97
2023-05-05T07:24:41.660Z,15.84
2023-05-05T07:27:09.725Z,16.24
2023-05-05T07:29:37.658Z,16.27
2023-05-05T07:32:06.049Z,16.11
2023-05-05T07:34:34.719Z,16.08
2023-05-05T07:37:04.149Z,16.34
2023-05-05T07:39:34.121Z,16.45
2023-05-05T07:42:02.494Z,16.56
2023-05-05T07:44:30.611Z,16.72
2023-05-05T07:46:58.551Z,16.77
2023-05-05T07:49:26.849Z,16.79
2023-05-05T07:51:55.492Z,16.82
2023-05-05T07:54:23.455Z,16.79
2023-05-05T07:56:52.776Z,16.64
2023-05-05T07:59:20.883Z,16.37
2023-05-05T08:01:48.818Z,16.66
2023-05-05T08:04:16.794Z,16.68
2023-05-05T08:06:44.684Z,16.82
2023-05-05T08:09:12.769Z,16.82
2023-05-05T08:11:40.905Z,17.11
2023-05-05T08:14:10.204Z,17.29
2023-05-05T08:16:38.165Z,17.34
2023-05-05T08:19:14.524Z,17.37
2023-05-05T08:21:49.448Z,17.60
2023-05-05T08:24:17.425Z,17.57
2023-05-05T08:26:45.342Z,17.75
2023-05-05T08:29:14.582Z,17.81
2023-05-05T08:31:42.671Z,17.87
2023-05-05T08:34:10.871Z,18.00
2023-05-05T08:36:38.975Z,17.89
2023-05-05T08:39:07.283Z,18.15
2023-05-05T08:41:35.537Z,17.98
2023-05-05T08:44:03.583Z,17.88
2023-05-05T08:46:33.302Z,17.83
2023-05-05T08:49:03.846Z,18.04
2023-05-05T08:51:38.581Z,18.09
2023-05-05T08:54:08.312Z,17.93
2023-05-05T08:56:41.551Z,18.12
2023-05-05T08:59:11.162Z,17.83
2023-05-05T09:01:42.736Z,17.78
2023-05-05T09:04:11.088Z,18.28
2023-05-05T09:06:39.147Z,18.44
2023-05-05T09:09:08.374Z,18.80
2023-05-05T09:11:37.553Z,19.01
2023-05-05T09:14:05.445Z,18.92
2023-05-05T09:16:33.484Z,18.95
2023-05-05T09:19:06.303Z,18.78
2023-05-05T09:21:34.321Z,18.54
2023-05-05T09:24:08.589Z,18.43
2023-05-05T09:26:38.825Z,18.38
2023-05-05T09:29:07.314Z,18.63
2023-05-05T09:31:36.424Z,18.69
2023-05-05T09:34:15.497Z,18.89
2023-05-05T09:36:48.194Z,19.05
2023-05-05T09:39:18.001Z,19.17
2023-05-05T09:41:47.014Z,19.38
2023-05-05T09:44:17.062Z,19.67
2023-05-05T09:46:52.618Z,19.42
2023-05-05T09:49:25.640Z,19.58
2023-05-05T09:51:54.247Z,19.68
2023-05-05T09:54:26.528Z,19.82
2023-05-05T09:56:54.554Z,19.66
2023-05-05T09:59:23.123Z,19.94
2023-05-05T10:01:52.428Z,19.79
2023-05-05T10:04:31.588Z,19.92
2023-05-05T10:07:00.298Z,19.73
2023-05-05T10:09:29.087Z,20.16
2023-05-05T10:11:59.016Z,20.30
2023-05-05T10:14:28.803Z,20.58
2023-05-05T10:16:56.953Z,20.56
2023-05-05T10:19:28.996Z,20.73
2023-05-05T10:22:03.946Z,20.59
2023-05-05T10:24:39.112Z,20.63
2023-05-05T10:27:13.704Z,20.68
2023-05-05T10:29:49.751Z,20.81
2023-05-05T10:32:47.445Z,20.58
2023-05-05T10:35:17.933Z,20.81
2023-05-05T10:37:46.623Z,20.81
2023-05-05T10:40:15.920Z,21.03
2023-05-05T10:42:44.729Z,20.73
2023-05-05T10:45:12.685Z,19.85
2023-05-05T10:47:41.445Z,19.36
2023-05-05T10:50:19.193Z,18.57
2023-05-05T10:52:56.754Z,18.73
2023-05-05T10:55:33.397Z,18.76
2023-05-05T10:58:01.293Z,18.91
2023-05-05T11:00:52.375Z,19.01
2023-05-05T11:03:22.026Z,18.58
2023-05-05T11:06:13.651Z,18.40
2023-05-05T11:08:43.033Z,18.79
2023-05-05T11:11:11.779Z,19.27
2023-05-05T11:13:40.602Z,19.84
2023-05-05T11:16:40.849Z,20.26
2023-05-05T11:19:42.267Z,20.04
2023-05-05T11:22:11.787Z,19.73
2023-05-05T11:24:40.686Z,19.70
2023-05-05T11:27:08.640Z,19.50
2023-05-05T11:30:11.041Z,19.13
2023-05-05T11:32:39.156Z,19.46
2023-05-05T11:35:08.018Z,19.49
2023-05-05T11:37:38.654Z,19.33
2023-05-05T11:40:17.725Z,19.43
2023-05-05T11:42:46.379Z,19.63
2023-05-05T11:45:22.502Z,19.29
2023-05-05T11:47:50.907Z,18.90
2023-05-05T11:50:22.995Z,18.73
2023-05-05T11:52:52.399Z,18.66
2023-05-05T11:55:24.075Z,18.56
2023-05-05T11:57:52.175Z,18.88
2023-05-05T12:00:20.921Z,19.02
2023-05-05T12:02:57.664Z,19.17
2023-05-05T12:05:25.891Z,18.92
2023-05-05T12:07:59.676Z,18.81
2023-05-05T12:10:28.152Z,18.57
2023-05-05T12:12:56.136Z,18.66
2023-05-05T12:15:31.952Z,18.93
2023-05-05T12:18:02.319Z,19.18
2023-05-05T12:20:32.398Z,19.24
2023-05-05T12:23:05.678Z,19.02
2023-05-05T12:25:38.216Z,19.18
2023-05-05T12:28:07.257Z,19.02
2023-05-05T12:30:35.978Z,19.01
2023-05-05T12:33:05.177Z,18.98
2023-05-05T12:35:33.540Z,18.99
2023-05-05T12:38:01.667Z,19.09
2023-05-05T12:40:51.780Z,19.36
2023-05-05T12:43:30.550Z,19.55
2023-05-05T12:46:06.649Z,19.29
2023-05-05T12:48:35.833Z,19.43
2023-05-05T12:51:28.206Z,19.56
2023-05-05T12:54:07.235Z,19.50
2023-05-05T12:56:40.969Z,19.44
2023-05-05T12:59:10.319Z,19.47
2023-05-05T13:01:49.735Z,19.44
2023-05-05T13:04:18.549Z,19.56
2023-05-05T13:06:49.474Z,19.40
2023-05-05T13:09:27.319Z,19.38
2023-05-05T13:11:56.609Z,19.36
2023-05-05T13:14:24.716Z,19.38
2023-05-05T13:16:52.655Z,19.14
2023-05-05T13:19:20.607Z,19.17
2023-05-05T13:21:48.623Z,19.05
2023-05-05T13:26:47.748Z,19.22
2023-05-05T13:29:17.546Z,18.94
2023-05-05T13:31:46.217Z,18.98
2023-05-05T13:34:14.400Z,18.54
2023-05-05T13:36:42.352Z,18.33
2023-05-05T13:39:10.300Z,18.55
2023-05-05T13:41:38.212Z,18.49
2023-05-05T13:44:06.152Z,18.58
2023-05-05T13:46:35.499Z,18.83
2023-05-05T13:49:03.501Z,18.54
2023-05-05T13:51:31.501Z,18.68
2023-05-05T13:54:00.783Z,18.40
2023-05-05T13:56:29.250Z,18.74
2023-05-05T13:58:57.311Z,18.66
2023-05-05T14:01:25.272Z,18.88
2023-05-05T14:03:57.158Z,19.09
2023-05-05T14:06:25.989Z,19.28
2023-05-05T14:08:54.075Z,19.39
2023-05-05T14:11:22.110Z,19.43
2023-05-05T14:13:50.063Z,19.21
2023-05-05T14:16:17.967Z,18.88
2023-05-05T14:18:45.902Z,19.14
2023-05-05T14:21:15.264Z,19.08
2023-05-05T14:23:43.292Z,19.36
2023-05-05T14:26:11.228Z,19.40
2023-05-05T14:28:39.104Z,19.51
2023-05-05T14:31:07.072Z,19.62
2023-05-05T14:33:35.045Z,19.26
2023-05-05T14:36:03.068Z,19.12
2023-05-05T14:38:32.460Z,19.00
2023-05-05T14:41:00.410Z,19.31
2023-05-05T14:43:28.292Z,19.75
2023-05-05T14:45:58.292Z,19.74
2023-05-05T14:48:26.371Z,19.82
2023-05-05T14:50:54.222Z,19.73
2023-05-05T14:53:22.180Z,19.28
2023-05-05T14:55:51.426Z,19.25
2023-05-05T14:58:22.466Z,19.23
2023-05-05T15:00:50.335Z,19.32
2023-05-05T15:03:18.428Z,19.53
2023-05-05T15:05:46.466Z,19.58
2023-05-05T15:08:14.897Z,19.88
2023-05-05T15:10:42.784Z,20.11
2023-05-05T15:13:12.235Z,20.27
2023-05-05T15:15:40.517Z,20.03
2023-05-05T15:18:08.528Z,20.25
2023-05-05T15:20:36.461Z,20.10
2023-05-05T15:23:04.463Z,19.83
2023-05-05T15:25:32.478Z,19.70
2023-05-05T15:28:00.964Z,19.29
2023-05-05T15:30:30.350Z,18.99
2023-05-05T15:32:58.292Z,18.78
2023-05-05T15:35:26.483Z,18.92
2023-05-05T15:37:54.634Z,19.12
2023-05-05T15:40:22.968Z,19.09
2023-05-05T15:42:50.939Z,18.99
2023-05-05T15:45:18.824Z,18.87
2023-05-05T15:47:48.108Z,18.84
2023-05-05T15:50:16.202Z,18.72
2023-05-05T15:52:44.305Z,18.59
2023-05-05T15:55:12.678Z,18.72
2023-05-05T15:57:40.766Z,18.87
2023-05-05T16:00:10.366Z,18.84
2023-05-05T16:02:38.425Z,18.78
2023-05-05T16:05:08.389Z,18.84
2023-05-05T16:07:36.472Z,18.77
2023-05-05T16:10:04.548Z,18.65
2023-05-05T16:12:32.523Z,18.52
2023-05-05T16:15:00.445Z,18.33
2023-05-05T16:17:28.605Z,18.41
2023-05-05T16:19:56.592Z,18.55
2023-05-05T16:22:25.821Z,18.48
2023-05-05T16:24:53.781Z,18.56
2023-05-05T16:27:21.783Z,18.52
2023-05-05T16:29:49.770Z,18.46
2023-05-05T16:32:17.811Z,18.50
2023-05-05T16:34:45.797Z,18.48
2023-05-05T16:37:13.780Z,18.26
2023-05-05T16:39:43.052Z,18.23
2023-05-05T16:42:11.061Z,18.25
2023-05-05T16:44:38.897Z,18.20
2023-05-05T16:47:06.802Z,18.21
2023-05-05T16:49:34.644Z,18.24
2023-05-05T16:52:02.678Z,18.18
2023-05-05T16:54:30.745Z,18.06
2023-05-05T16:57:00.177Z,18.02
2023-05-05T16:59:29.665Z,17.86
2023-05-05T17:01:59.010Z,17.70
2023-05-05T17:04:27.121Z,17.82
2023-05-05T17:06:56.358Z,17.90
2023-05-05T17:09:25.006Z,17.85
2023-05-05T17:11:52.998Z,17.87
2023-05-05T17:14:22.285Z,17.72
2023-05-05T17:16:50.220Z,17.73
2023-05-05T17:19:18.132Z,17.58
2023-05-05T17:21:46.137Z,17.83
2023-05-05T17:24:14.077Z,17.75
2023-05-05T17:26:42.062Z,17.35
2023-05-05T17:29:12.290Z,17.31
2023-05-05T17:31:42.940Z,17.40
2023-05-05T17:34:10.948Z,17.52
2023-05-05T17:36:38.916Z,17.35
2023-05-05T17:39:06.962Z,17.26
2023-05-05T17:41:35.055Z,17.07
2023-05-05T17:44:02.973Z,17.03
2023-05-05T17:46:30.947Z,17.02
2023-05-05T17:49:00.637Z,17.00
2023-05-05T17:51:28.782Z,16.97
2023-05-05T17:53:56.706Z,16.73
2023-05-05T17:56:24.612Z,16.70
2023-05-05T17:58:53.101Z,16.66
2023-05-05T18:01:22.257Z,16.66
2023-05-05T18:03:50.408Z,16.54
2023-05-05T18:06:19.898Z,16.51
2023-05-05T18:08:47.772Z,16.72
2023-05-05T18:11:15.741Z,16.86
2023-05-05T18:13:44.006Z,16.85
2023-05-05T18:16:11.936Z,16.87
2023-05-05T18:18:40.597Z,17.00
2023-05-05T18:21:12.285Z,16.98
2023-05-05T18:23:41.718Z,16.82
2023-05-05T18:26:09.939Z,16.86
2023-05-05T18:28:38.018Z,16.92
2023-05-05T18:31:06.301Z,16.99
2023-05-05T18:33:34.345Z,16.88
2023-05-05T18:36:03.712Z,16.97
2023-05-05T18:38:32.724Z,16.91
2023-05-05T18:41:02.023Z,16.92
2023-05-05T18:43:29.939Z,16.91
2023-05-05T18:45:57.910Z,16.94
2023-05-05T18:48:26.267Z,16.84
2023-05-05T18:50:54.251Z,16.84
2023-05-05T18:53:22.390Z,16.89
2023-05-05T18:55:50.288Z,16.81
2023-05-05T18:58:19.949Z,16.85
2023-05-05T19:00:48.005Z,16.73
2023-05-05T19:03:16.331Z,16.81
2023-05-05T19:05:44.522Z,16.78
2023-05-05T19:08:12.473Z,16.74
2023-05-05T19:10:40.370Z,16.81
2023-05-05T19:13:09.479Z,16.83
2023-05-05T19:15:38.984Z,16.71
2023-05-05T19:18:07.238Z,16.67
2023-05-05T19:20:35.191Z,16.80
2023-05-05T19:23:04.448Z,16.68
2023-05-05T19:25:32.437Z,16.74
2023-05-05T19:28:00.335Z,16.77
2023-05-05T19:30:28.459Z,16.75
2023-05-05T19:32:57.903Z,16.58
2023-05-05T19:35:26.188Z,16.47
2023-05-05T19:37:54.122Z,16.63
2023-05-05T19:40:22.161Z,16.58
2023-05-05T19:42:50.206Z,16.57
2023-05-05T19:45:18.394Z,16.59
2023-05-05T19:47:46.372Z,16.52
2023-05-05T19:50:16.632Z,16.47
2023-05-05T19:52:44.570Z,16.51
2023-05-05T19:55:13.217Z,16.40
2023-05-05T19:57:41.755Z,16.38
2023-05-05T20:00:11.069Z,16.43
2023-05-05T20:02:39.315Z,16.32
2023-05-05T20:05:08.082Z,16.41
2023-05-05T20:07:37.364Z,16.37
2023-05-05T20:10:07.352Z,16.39
2023-05-05T20:12:35.534Z,16.40
2023-05-05T20:15:03.454Z,16.41
2023-05-05T20:17:31.361Z,16.38
2023-05-05T20:19:59.233Z,16.37
2023-05-05T20:22:27.171Z,16.45
2023-05-05T20:24:56.440Z,16.50
2023-05-05T20:27:25.931Z,16.38
2023-05-05T20:29:54.657Z,16.36
2023-05-05T20:32:22.648Z,16.33
2023-05-05T20:34:50.529Z,16.48
2023-05-05T20:37:18.528Z,16.48
2023-05-05T20:39:47.330Z,16.45
2023-05-05T20:42:16.600Z,16.46
2023-05-05T20:44:44.499Z,16.27
2023-05-05T20:47:12.602Z,16.23
2023-05-05T20:49:40.743Z,16.20
2023-05-05T20:52:08.668Z,16.16
2023-05-05T20:54:36.650Z,16.12
2023-05-05T20:57:04.605Z,16.09
2023-05-05T20:59:33.913Z,16.15
2023-05-05T21:02:01.904Z,16.14
2023-05-05T21:04:29.889Z,16.16
2023-05-05T21:06:58.426Z,16.02
2023-05-05T21:09:26.720Z,16.08
2023-05-05T21:11:54.762Z,16.06
2023-05-05T21:14:23.423Z,15.88
2023-05-05T21:16:52.789Z,15.99
2023-05-05T21:19:21.270Z,15.90
2023-05-05T21:21:49.521Z,16.01
2023-05-05T21:24:17.492Z,15.99
2023-05-05T21:26:46.048Z,16.03
2023-05-05T21:29:13.900Z,16.10
2023-05-05T21:31:41.825Z,16.15
2023-05-05T21:34:11.489Z,16.06
2023-05-05T21:36:39.487Z,16.14
2023-05-05T21:39:07.514Z,16.10
2023-05-05T21:41:35.461Z,16.09
2023-05-05T21:44:03.585Z,15.98
2023-05-05T21:46:31.615Z,16.08
2023-05-05T21:48:59.580Z,16.12
2023-05-05T21:51:28.863Z,16.05
2023-05-05T21:53:57.328Z,16.10
2023-05-05T21:56:25.436Z,15.81
2023-05-05T21:58:53.340Z,15.97
2023-05-05T22:01:21.251Z,15.99
2023-05-05T22:03:49.264Z,15.98
2023-05-05T22:06:18.553Z,16.06
2023-05-05T22:08:48.053Z,16.05
2023-05-05T22:11:16.141Z,15.97
2023-05-05T22:13:44.007Z,15.90
2023-05-05T22:16:12.824Z,15.97
2023-05-05T22:18:40.772Z,15.98
2023-05-05T22:21:08.651Z,16.00
2023-05-05T22:23:37.255Z,15.88
2023-05-05T22:26:06.755Z,15.96
2023-05-05T22:28:34.795Z,15.92
2023-05-05T22:31:02.815Z,15.81
2023-05-05T22:33:30.787Z,15.72
2023-05-05T22:35:58.754Z,15.74
2023-05-05T22:38:26.953Z,15.81
2023-05-05T22:40:54.805Z,15.69
2023-05-05T22:43:24.169Z,15.66
2023-05-05T22:45:52.316Z,15.72
2023-05-05T22:48:20.295Z,15.58
2023-05-05T22:50:48.227Z,15.66
2023-05-05T22:53:16.141Z,15.71
2023-05-05T22:55:44.117Z,15.69
2023-05-05T22:58:11.991Z,15.55
2023-05-05T23:00:41.288Z,15.61
2023-05-05T23:03:09.671Z,15.64
2023-05-05T23:05:37.528Z,15.61
2023-05-05T23:08:06.727Z,15.54
2023-05-05T23:10:34.818Z,15.46
2023-05-05T23:13:02.835Z,15.50
2023-05-05T23:15:31.177Z,15.50
2023-05-05T23:18:00.521Z,15.42
2023-05-05T23:20:28.972Z,15.42
2023-05-05T23:22:57.085Z,15.42
2023-05-05T23:25:25.011Z,15.16
2023-05-05T23:27:52.967Z,15.11
2023-05-05T23:30:21.099Z,15.23
2023-05-05T23:32:49.205Z,15.12
2023-05-05T23:35:18.555Z,15.05
2023-05-05T23:37:46.454Z,15.06
2023-05-05T23:40:14.388Z,15.08
2023-05-05T23:42:42.279Z,14.99
2023-05-05T23:45:11.544Z,14.89
2023-05-05T23:47:39.663Z,14.70
2023-05-05T23:50:08.974Z,14.83
2023-05-05T23:52:38.266Z,14.80
2023-05-05T23:55:07.513Z,14.85
2023-05-05T23:57:36.463Z,14.82
